Back to Top

Language: 

My Weather Underground Personal Weather Station Historical Data with Graphs...

Delerius Weather Station Historical Data
Daily Summary for February 24, 2017 Units:  Metric    English   Both
« Previous Day
Next Day »
Daily Weekly Monthly Yearly Custom
  High: Low: Average:
Temperature: 9.5 °C 2.8 °C 5.8 °C
Dew Point: 3.2 °C 0.9 °C 2 °C
Humidity: 91 % 60 % 77 %
Wind Speed: 22.5 km/h 0 km/h 13.5 km/h
Wind Gust: 74 km/h - -
Wind:- - West
Pressure: 1016.1 hPa 1005.6 hPa -
Precipitation: 0 mm    
Historical Graphs
 
 
Tabular Data for February 24, 2017
Time Temperature Dew Point Pressure Wind Wind Speed Wind Gust Humidity Rainfall Rate (Hourly) solar Conditions
00:00 4.1 °C 2.4 °C 1005.6 hPa West 14.5 km/h 74 km/h 89 % 0 mm 0 W/m2
00:05 4.1 °C 2.4 °C 1005.6 hPa WNW 14.5 km/h 74 km/h 89 % 0 mm 0 W/m2
00:15 4.1 °C 2.6 °C 1005.6 hPa WNW 12.9 km/h 20.9 km/h 90 % 0 mm 0 W/m2
00:20 4.1 °C 2.6 °C 1006 hPa WNW 11.3 km/h 11.3 km/h 90 % 0 mm 0 W/m2
00:25 4.1 °C 2.6 °C 1006 hPa NW 9.7 km/h 11.3 km/h 90 % 0 mm 0 W/m2
00:35 4.2 °C 2.8 °C 1006.3 hPa WNW 12.9 km/h 29 km/h 91 % 0 mm 0 W/m2
00:40 4.2 °C 2.7 °C 1006.3 hPa NW 19.3 km/h 19.3 km/h 90 % 0 mm 0 W/m2
00:45 4.3 °C 2.8 °C 1006.3 hPa WNW 22.5 km/h 29 km/h 90 % 0 mm 0 W/m2
00:50 4.3 °C 2.6 °C 1006.3 hPa WNW 20.9 km/h 20.9 km/h 89 % 0 mm 0 W/m2
01:00 4.3 °C 2.5 °C 1006.7 hPa NW 20.9 km/h 20.9 km/h 88 % 0 mm 0 W/m2
01:10 4.4 °C 2.6 °C 1006.7 hPa WNW 19.3 km/h 19.3 km/h 88 % 0 mm 0 W/m2
01:15 4.4 °C 2.6 °C 1006.7 hPa WNW 17.7 km/h 25.7 km/h 88 % 0 mm 0 W/m2
01:20 4.4 °C 2.6 °C 1006.7 hPa WNW 16.1 km/h 25.7 km/h 88 % 0 mm 0 W/m2
01:25 4.5 °C 2.7 °C 1007 hPa WNW 16.1 km/h 25.7 km/h 88 % 0 mm 0 W/m2
01:30 4.5 °C 2.7 °C 1007 hPa WNW 16.1 km/h 16.1 km/h 88 % 0 mm 0 W/m2
01:40 4.5 °C 2.7 °C 1007 hPa WNW 14.5 km/h 25.7 km/h 88 % 0 mm 0 W/m2
01:45 4.5 °C 2.7 °C 1007 hPa WNW 14.5 km/h 25.7 km/h 88 % 0 mm 0 W/m2
01:50 4.5 °C 2.5 °C 1007 hPa WNW 16.1 km/h 25.7 km/h 87 % 0 mm 0 W/m2
01:55 4.4 °C 2.4 °C 1007.3 hPa West 16.1 km/h 25.7 km/h 87 % 0 mm 0 W/m2
02:00 4.4 °C 2.3 °C 1007.3 hPa WNW 16.1 km/h 25.7 km/h 86 % 0 mm 0 W/m2
02:05 4.3 °C 2.2 °C 1007.3 hPa WNW 17.7 km/h 25.7 km/h 86 % 0 mm 0 W/m2
02:15 4.2 °C 1.9 °C 1007.3 hPa WNW 14.5 km/h 25.7 km/h 85 % 0 mm 0 W/m2
02:20 4.2 °C 1.9 °C 1007.3 hPa WNW 12.9 km/h 25.7 km/h 85 % 0 mm 0 W/m2
02:30 4.1 °C 1.8 °C 1007.7 hPa WNW 16.1 km/h 25.7 km/h 85 % 0 mm 0 W/m2
02:35 4.1 °C 2 °C 1007.7 hPa WNW 14.5 km/h 25.7 km/h 86 % 0 mm 0 W/m2
02:40 4.1 °C 2 °C 1008 hPa West 14.5 km/h 25.7 km/h 86 % 0 mm 0 W/m2
02:50 3.9 °C 2 °C 1008.4 hPa WNW 19.3 km/h 19.3 km/h 87 % 0 mm 0 W/m2
02:55 3.8 °C 1.8 °C 1008.4 hPa WNW 19.3 km/h 25.7 km/h 87 % 0 mm 0 W/m2
03:00 3.7 °C 1.7 °C 1008.4 hPa WNW 16.1 km/h 16.1 km/h 87 % 0 mm 0 W/m2
03:05 3.6 °C 1.6 °C 1008.4 hPa West 14.5 km/h 25.7 km/h 87 % 0 mm 0 W/m2
03:10 3.4 °C 1.5 °C 1008.4 hPa West 14.5 km/h 25.7 km/h 87 % 0 mm 0 W/m2
03:20 3.5 °C 1.4 °C 1008.4 hPa West 17.7 km/h 17.7 km/h 86 % 0 mm 0 W/m2
03:25 3.4 °C 1.3 °C 1008.7 hPa NW 16.1 km/h 25.7 km/h 86 % 0 mm 0 W/m2
03:35 3.3 °C 1.2 °C 1008.7 hPa WNW 14.5 km/h 25.7 km/h 86 % 0 mm 0 W/m2
03:40 3.2 °C 1.1 °C 1009 hPa WNW 12.9 km/h 25.7 km/h 86 % 0 mm 0 W/m2
03:45 3.2 °C 1.1 °C 1008.7 hPa West 12.9 km/h 25.7 km/h 86 % 0 mm 0 W/m2
03:55 3.1 °C 1.1 °C 1008.7 hPa NW 14.5 km/h 25.7 km/h 87 % 0 mm 0 W/m2
04:00 3.1 °C 1.1 °C 1009 hPa WNW 16.1 km/h 16.1 km/h 87 % 0 mm 0 W/m2
04:05 3.1 °C 1.1 °C 1009 hPa WNW 14.5 km/h 25.7 km/h 87 % 0 mm 0 W/m2
04:10 3.1 °C 1.1 °C 1009 hPa WNW 14.5 km/h 25.7 km/h 87 % 0 mm 0 W/m2
04:15 3.1 °C 1.1 °C 1009 hPa WNW 14.5 km/h 25.7 km/h 87 % 0 mm 0 W/m2
04:20 3 °C 1.2 °C 1009.4 hPa West 16.1 km/h 16.1 km/h 88 % 0 mm 0 W/m2
04:30 3 °C 1.2 °C 1009.4 hPa WSW 19.3 km/h 25.7 km/h 88 % 0 mm 0 W/m2
04:35 3 °C 1.1 °C 1009.4 hPa WNW 19.3 km/h 25.7 km/h 87 % 0 mm 0 W/m2
04:40 2.9 °C 1 °C 1009.4 hPa West 17.7 km/h 17.7 km/h 87 % 0 mm 0 W/m2
04:45 2.9 °C 0.9 °C 1009.7 hPa West 16.1 km/h 30.6 km/h 87 % 0 mm 0 W/m2
04:50 2.9 °C 1.1 °C 1009.7 hPa West 19.3 km/h 19.3 km/h 88 % 0 mm 0 W/m2
05:00 2.8 °C 0.9 °C 1009.7 hPa NW 16.1 km/h 25.7 km/h 87 % 0 mm 0 W/m2
05:10 2.8 °C 0.9 °C 1010 hPa WNW 17.7 km/h 25.7 km/h 87 % 0 mm 0 W/m2
05:15 2.9 °C 0.9 °C 1010 hPa WNW 17.7 km/h 25.7 km/h 87 % 0 mm 0 W/m2
05:20 2.9 °C 0.9 °C 1010 hPa NW 16.1 km/h 25.7 km/h 87 % 0 mm 0 W/m2
05:25 2.9 °C 0.9 °C 1010 hPa WNW 16.1 km/h 25.7 km/h 87 % 0 mm 0 W/m2
05:35 2.9 °C 1 °C 1010 hPa WNW 14.5 km/h 25.7 km/h 87 % 0 mm 0 W/m2
05:40 2.9 °C 0.9 °C 1010 hPa West 14.5 km/h 14.5 km/h 87 % 0 mm 0 W/m2
05:45 2.9 °C 0.9 °C 1010.4 hPa WNW 14.5 km/h 25.7 km/h 87 % 0 mm 0 W/m2
05:50 2.9 °C 1.1 °C 1010.4 hPa NW 14.5 km/h 14.5 km/h 88 % 0 mm 0 W/m2
05:55 2.9 °C 1.1 °C 1010.4 hPa NW 14.5 km/h 17.7 km/h 88 % 0 mm 0 W/m2
06:00 2.9 °C 1.2 °C 1010.4 hPa WNW 16.1 km/h 25.7 km/h 88 % 0 mm 0 W/m2
06:10 3.1 °C 1.3 °C 1010.7 hPa WNW 16.1 km/h 25.7 km/h 88 % 0 mm 0 W/m2
06:15 3.1 °C 1.3 °C 1010.7 hPa NW 19.3 km/h 25.7 km/h 88 % 0 mm 0 W/m2
06:20 3.1 °C 1.2 °C 1010.4 hPa West 20.9 km/h 20.9 km/h 87 % 0 mm 0 W/m2
06:30 3.1 °C 1.2 °C 1010.7 hPa WNW 19.3 km/h 19.3 km/h 87 % 0 mm 0 W/m2
06:35 3.1 °C 1.2 °C 1010.7 hPa WNW 19.3 km/h 25.7 km/h 87 % 0 mm 0 W/m2
06:45 3.2 °C 1.3 °C 1011.1 hPa West 20.9 km/h 25.7 km/h 87 % 0 mm 0 W/m2
06:50 3.2 °C 1.3 °C 1011.1 hPa West 20.9 km/h 30.6 km/h 87 % 0 mm 0 W/m2
06:55 3.2 °C 1.3 °C 1011.4 hPa WNW 20.9 km/h 30.6 km/h 87 % 0 mm 0 W/m2
07:00 3.2 °C 1.2 °C 1011.4 hPa WNW 19.3 km/h 19.3 km/h 87 % 0 mm 0 W/m2
07:05 3.1 °C 1.2 °C 1011.7 hPa WNW 16.1 km/h 25.7 km/h 87 % 0 mm 5 W/m2
07:15 3 °C 1.2 °C 1011.7 hPa West 14.5 km/h 25.7 km/h 88 % 0 mm 9 W/m2
07:20 2.9 °C 1.2 °C 1012.1 hPa WNW 12.9 km/h 12.9 km/h 88 % 0 mm 12 W/m2
07:25 2.9 °C 1.1 °C 1012.1 hPa WNW 11.3 km/h 25.7 km/h 88 % 0 mm 21 W/m2
07:30 2.9 °C 1.1 °C 1012.1 hPa WNW 9.7 km/h 25.7 km/h 88 % 0 mm 30 W/m2
07:35 2.9 °C 1.3 °C 1012.4 hPa WNW 11.3 km/h 25.7 km/h 89 % 0 mm 42 W/m2
07:40 3 °C 1.2 °C 1012.4 hPa WNW 12.9 km/h 12.9 km/h 88 % 0 mm 26 W/m2
07:50 3.1 °C 1.3 °C 1012.4 hPa NW 11.3 km/h 25.7 km/h 88 % 0 mm 53 W/m2
07:55 3.2 °C 1.4 °C 1012.8 hPa West 12.9 km/h 25.7 km/h 88 % 0 mm 83 W/m2
08:05 3.7 °C 1.7 °C 1012.8 hPa West 16.1 km/h 25.7 km/h 87 % 0 mm 98 W/m2
08:10 3.8 °C 1.9 °C 1012.8 hPa West 16.1 km/h 25.7 km/h 87 % 0 mm 123 W/m2
08:15 4 °C 1.9 °C 1012.8 hPa WNW 16.1 km/h 25.7 km/h 86 % 0 mm 142 W/m2
08:25 4.3 °C 2 °C 1013.1 hPa WNW 19.3 km/h 19.3 km/h 85 % 0 mm 149 W/m2
08:30 4.4 °C 2.1 °C 1013.1 hPa NW 16.1 km/h 32.2 km/h 85 % 0 mm 163 W/m2
08:35 4.6 °C 2.1 °C 1013.1 hPa WNW 16.1 km/h 32.2 km/h 84 % 0 mm 190 W/m2
08:40 4.6 °C 2.1 °C 1013.4 hPa WNW 19.3 km/h 19.3 km/h 84 % 0 mm 204 W/m2
08:45 4.7 °C 2.2 °C 1013.4 hPa WNW 19.3 km/h 25.7 km/h 84 % 0 mm 197 W/m2
08:55 4.9 °C 2.3 °C 1013.8 hPa NNW 17.7 km/h 25.7 km/h 83 % 0 mm 248 W/m2
09:00 5.1 °C 2.4 °C 1013.8 hPa WNW 16.1 km/h 16.1 km/h 83 % 0 mm 257 W/m2
09:05 5.3 °C 2.4 °C 1013.8 hPa West 16.1 km/h 17.7 km/h 82 % 0 mm 227 W/m2
09:10 5.4 °C 2.6 °C 1013.8 hPa WNW 16.1 km/h 29 km/h 82 % 0 mm 244 W/m2
09:15 5.5 °C 2.5 °C 1013.8 hPa West 16.1 km/h 29 km/h 81 % 0 mm 287 W/m2
09:20 5.6 °C 2.6 °C 1014.1 hPa West 17.7 km/h 25.7 km/h 81 % 0 mm 301 W/m2
09:30 5.8 °C 2.7 °C 1014.1 hPa NNW 16.1 km/h 16.1 km/h 80 % 0 mm 288 W/m2
09:40 6.1 °C 2.7 °C 1014.4 hPa NW 14.5 km/h 14.5 km/h 79 % 0 mm 336 W/m2
09:45 6.3 °C 2.7 °C 1014.4 hPa WNW 14.5 km/h 16.1 km/h 78 % 0 mm 338 W/m2
09:50 6.4 °C 2.7 °C 1014.4 hPa WNW 17.7 km/h 25.7 km/h 77 % 0 mm 353 W/m2
09:55 6.4 °C 2.7 °C 1014.4 hPa NW 17.7 km/h 25.7 km/h 77 % 0 mm 366 W/m2
10:05 6.6 °C 2.7 °C 1014.4 hPa NW 17.7 km/h 29 km/h 76 % 0 mm 387 W/m2
10:10 6.8 °C 2.8 °C 1014.4 hPa NW 17.7 km/h 17.7 km/h 76 % 0 mm 399 W/m2
10:15 6.8 °C 2.9 °C 1014.4 hPa WNW 14.5 km/h 25.7 km/h 76 % 0 mm 417 W/m2
10:20 6.9 °C 2.8 °C 1014.8 hPa West 17.7 km/h 25.7 km/h 75 % 0 mm 446 W/m2
10:25 7 °C 3.1 °C 1014.8 hPa WNW 19.3 km/h 25.7 km/h 76 % 0 mm 473 W/m2
10:35 6.7 °C 2.6 °C 1015.1 hPa WNW 14.5 km/h 25.7 km/h 75 % 0 mm 162 W/m2
10:40 6.6 °C 2.6 °C 1015.1 hPa NW 12.9 km/h 12.9 km/h 76 % 0 mm 123 W/m2
10:45 6.5 °C 2.6 °C 1015.1 hPa NW 14.5 km/h 24.1 km/h 76 % 0 mm 144 W/m2
10:50 6.6 °C 2.4 °C 1015.1 hPa WNW 17.7 km/h 17.7 km/h 75 % 0 mm 179 W/m2
11:00 7.1 °C 3 °C 1015.1 hPa WNW 11.3 km/h 25.7 km/h 75 % 0 mm 186 W/m2
11:05 7.3 °C 3 °C 1015.5 hPa NW 14.5 km/h 25.7 km/h 74 % 0 mm 585 W/m2
11:15 7.9 °C 3.2 °C 1015.5 hPa WNW 14.5 km/h 25.7 km/h 72 % 0 mm 594 W/m2
11:20 7.9 °C 3 °C 1015.5 hPa West 14.5 km/h 25.7 km/h 71 % 0 mm 615 W/m2
11:25 7.9 °C 3 °C 1015.8 hPa WNW 14.5 km/h 25.7 km/h 71 % 0 mm 629 W/m2
11:30 8.1 °C 2.7 °C 1015.8 hPa WNW 16.1 km/h 25.7 km/h 69 % 0 mm 199 W/m2
11:35 7.9 °C 2.8 °C 1015.8 hPa WNW 17.7 km/h 25.7 km/h 70 % 0 mm 134 W/m2
11:45 8.2 °C 2.8 °C 1015.5 hPa WNW 19.3 km/h 19.3 km/h 69 % 0 mm 345 W/m2
11:50 8.1 °C 2.5 °C 1015.5 hPa WNW 20.9 km/h 20.9 km/h 68 % 0 mm 185 W/m2
11:55 8.2 °C 3 °C 1015.8 hPa NW 17.7 km/h 25.7 km/h 70 % 0 mm 142 W/m2
12:00 7.9 °C 2.4 °C 1015.8 hPa West 16.1 km/h 25.7 km/h 68 % 0 mm 120 W/m2
12:05 7.7 °C 2.2 °C 1015.8 hPa WNW 16.1 km/h 25.7 km/h 68 % 0 mm 570 W/m2
12:15 8.2 °C 2.6 °C 1015.8 hPa WNW 14.5 km/h 24.1 km/h 68 % 0 mm 580 W/m2
12:20 8.6 °C 3.2 °C 1015.5 hPa West 16.1 km/h 25.7 km/h 69 % 0 mm 601 W/m2
12:25 8.8 °C 3 °C 1015.5 hPa West 16.1 km/h 25.7 km/h 67 % 0 mm 647 W/m2
12:30 9 °C 3.2 °C 1015.8 hPa West 16.1 km/h 16.1 km/h 67 % 0 mm 323 W/m2
12:40 9 °C 2.1 °C 1015.5 hPa WNW 17.7 km/h 25.7 km/h 62 % 0 mm 366 W/m2
12:50 8.9 °C 2.5 °C 1015.5 hPa WNW 19.3 km/h 19.3 km/h 64 % 0 mm 520 W/m2
12:55 9.1 °C 2.4 °C 1015.5 hPa WNW 19.3 km/h 22.5 km/h 63 % 0 mm 533 W/m2
13:00 9.2 °C 2.5 °C 1015.5 hPa NW 17.7 km/h 25.7 km/h 63 % 0 mm 480 W/m2
13:05 9.3 °C 2.4 °C 1015.5 hPa WNW 16.1 km/h 25.7 km/h 62 % 0 mm 559 W/m2
13:10 9.4 °C 2.4 °C 1015.5 hPa West 17.7 km/h 17.7 km/h 62 % 0 mm 543 W/m2
13:15 9.4 °C 2.1 °C 1015.5 hPa WNW 16.1 km/h 25.7 km/h 60 % 0 mm 527 W/m2
13:25 9.4 °C 2.7 °C 1015.5 hPa West 14.5 km/h 25.7 km/h 63 % 0 mm 468 W/m2
13:35 9.5 °C 2.3 °C 1015.8 hPa West 17.7 km/h 25.7 km/h 61 % 0 mm 396 W/m2
13:40 9.4 °C 2 °C 1015.5 hPa WNW 19.3 km/h 19.3 km/h 60 % 0 mm 429 W/m2
13:45 9.3 °C 2.1 °C 1015.8 hPa West 17.7 km/h 20.9 km/h 61 % 0 mm 362 W/m2
13:55 9.1 °C 1.7 °C 1015.5 hPa WSW 16.1 km/h 25.7 km/h 60 % 0 mm 288 W/m2
14:00 9 °C 1.9 °C 1015.5 hPa West 16.1 km/h 25.7 km/h 61 % 0 mm 403 W/m2
14:10 9.1 °C 1.7 °C 1015.8 hPa WNW 16.1 km/h 25.7 km/h 60 % 0 mm 311 W/m2
14:15 9 °C 1.7 °C 1015.8 hPa WNW 17.7 km/h 25.7 km/h 60 % 0 mm 332 W/m2
14:20 8.9 °C 1.6 °C 1015.8 hPa WNW 17.7 km/h 25.7 km/h 60 % 0 mm 345 W/m2
14:25 8.9 °C 1.6 °C 1015.8 hPa NW 17.7 km/h 25.7 km/h 60 % 0 mm 396 W/m2
14:30 9.1 °C 1.7 °C 1015.5 hPa WNW 17.7 km/h 17.7 km/h 60 % 0 mm 399 W/m2
14:40 9.4 °C 2.2 °C 1015.8 hPa West 16.1 km/h 25.7 km/h 61 % 0 mm 355 W/m2
14:45 9.3 °C 1.9 °C 1015.8 hPa SW 17.7 km/h 25.7 km/h 60 % 0 mm 309 W/m2
14:50 9.2 °C 1.8 °C 1015.5 hPa NW 17.7 km/h 25.7 km/h 60 % 0 mm 292 W/m2
14:55 9.2 °C 1.8 °C 1015.5 hPa WNW 17.7 km/h 25.7 km/h 60 % 0 mm 315 W/m2
15:00 9.2 °C 2.1 °C 1015.8 hPa WNW 16.1 km/h 25.7 km/h 61 % 0 mm 332 W/m2
15:10 9.1 °C 2 °C 1015.8 hPa WSW 17.7 km/h 17.7 km/h 61 % 0 mm 311 W/m2
15:15 9 °C 1.9 °C 1015.8 hPa WNW 16.1 km/h 25.7 km/h 61 % 0 mm 285 W/m2
15:20 9 °C 1.9 °C 1015.5 hPa WNW 14.5 km/h 25.7 km/h 61 % 0 mm 146 W/m2
15:25 8.8 °C 1.9 °C 1015.8 hPa West 14.5 km/h 25.7 km/h 62 % 0 mm 105 W/m2
15:30 8.5 °C 1.6 °C 1015.8 hPa West 14.5 km/h 14.5 km/h 62 % 0 mm 104 W/m2
15:35 8.2 °C 1.8 °C 1015.8 hPa West 14.5 km/h 25.7 km/h 64 % 0 mm 104 W/m2
15:45 8 °C 2.2 °C 1015.8 hPa WNW 12.9 km/h 25.7 km/h 67 % 0 mm 95 W/m2
15:50 7.8 °C 2.1 °C 1016.1 hPa West 14.5 km/h 14.5 km/h 67 % 0 mm 83 W/m2
15:55 7.7 °C 2.1 °C 1016.1 hPa West 16.1 km/h 16.1 km/h 68 % 0 mm 81 W/m2
16:00 7.5 °C 2.2 °C 1016.1 hPa WNW 14.5 km/h 25.7 km/h 69 % 0 mm 77 W/m2
16:05 7.4 °C 2.1 °C 1016.1 hPa West 14.5 km/h 25.7 km/h 69 % 0 mm 70 W/m2
16:10 7.3 °C 2.2 °C 1016.1 hPa West 14.5 km/h 14.5 km/h 70 % 0 mm 60 W/m2
16:20 7.2 °C 2.3 °C 1015.8 hPa West 11.3 km/h 25.7 km/h 71 % 0 mm 56 W/m2
16:25 7.1 °C 2.2 °C 1015.8 hPa West 9.7 km/h 25.7 km/h 71 % 0 mm 54 W/m2
16:30 7.1 °C 2.3 °C 1015.8 hPa West 9.7 km/h 9.7 km/h 72 % 0 mm 58 W/m2
16:35 7.1 °C 2.3 °C 1015.8 hPa West 8 km/h 25.7 km/h 72 % 0 mm 51 W/m2
16:40 7.1 °C 2.6 °C 1015.8 hPa West 6.4 km/h 6.4 km/h 73 % 0 mm 46 W/m2
16:50 7 °C 2.5 °C 1016.1 hPa West 3.2 km/h 25.7 km/h 73 % 0 mm 33 W/m2
16:55 6.9 °C 2.4 °C 1015.8 hPa West 4.8 km/h 25.7 km/h 73 % 0 mm 23 W/m2
17:00 6.9 °C 2.4 °C 1015.8 hPa WSW 4.8 km/h 25.7 km/h 73 % 0 mm 18 W/m2
17:05 6.8 °C 2.3 °C 1015.8 hPa WSW 6.4 km/h 25.7 km/h 73 % 0 mm 14 W/m2
17:10 6.8 °C 2.4 °C 1015.8 hPa WSW 6.4 km/h 6.4 km/h 74 % 0 mm 11 W/m2
17:20 6.7 °C 2.4 °C 1015.8 hPa WSW 1.6 km/h 1.6 km/h 74 % 0 mm 7 W/m2
17:25 6.6 °C 2.5 °C 1015.8 hPa Calm   25.7 km/h 75 % 0 mm 5 W/m2
17:30 6.6 °C 2.5 °C 1015.5 hPa Calm   25.7 km/h 75 % 0 mm 0 W/m2
17:35 6.6 °C 2.7 °C 1015.5 hPa Calm   25.7 km/h 76 % 0 mm 0 W/m2
17:40 6.6 °C 2.6 °C 1015.8 hPa Calm   25.7 km/h 76 % 0 mm 0 W/m2
17:50 6.4 °C 2.7 °C 1015.8 hPa Calm   25.7 km/h 77 % 0 mm 0 W/m2
17:55 6.4 °C 2.7 °C 1015.8 hPa Calm   25.7 km/h 77 % 0 mm 0 W/m2
18:00 6.4 °C 2.4 °C 1015.8 hPa WSW 1.6 km/h 1.6 km/h 76 % 0 mm 0 W/m2
18:05 6.4 °C 2.4 °C 1015.8 hPa WSW 1.6 km/h 25.7 km/h 76 % 0 mm 0 W/m2
18:10 6.3 °C 2.4 °C 1015.8 hPa WSW 1.6 km/h 25.7 km/h 76 % 0 mm 0 W/m2
18:15 6.4 °C 2.3 °C 1015.8 hPa WSW 3.2 km/h 25.7 km/h 75 % 0 mm 0 W/m2
18:20 6.4 °C 2.3 °C 1015.8 hPa WSW 4.8 km/h 25.7 km/h 75 % 0 mm 0 W/m2
18:30 6.4 °C 2.1 °C 1015.8 hPa WSW 4.8 km/h 4.8 km/h 74 % 0 mm 0 W/m2
18:35 6.4 °C 2.1 °C 1015.8 hPa WSW 3.2 km/h 25.7 km/h 74 % 0 mm 0 W/m2
18:40 6.4 °C 1.9 °C 1015.8 hPa WSW 1.6 km/h 25.7 km/h 73 % 0 mm 0 W/m2
18:45 6.3 °C 1.8 °C 1016.1 hPa WSW 1.6 km/h 25.7 km/h 73 % 0 mm 0 W/m2
18:50 6.3 °C 1.8 °C 1016.1 hPa WSW 3.2 km/h 25.7 km/h 73 % 0 mm 0 W/m2
19:00 6.3 °C 1.7 °C 1016.1 hPa WSW 4.8 km/h 25.7 km/h 72 % 0 mm 0 W/m2
19:05 6.3 °C 1.7 °C 1016.1 hPa SW 6.4 km/h 25.7 km/h 72 % 0 mm 0 W/m2
19:10 6.3 °C 1.7 °C 1015.8 hPa SW 6.4 km/h 25.7 km/h 72 % 0 mm 0 W/m2
19:15 6.3 °C 1.7 °C 1015.8 hPa SW 4.8 km/h 25.7 km/h 72 % 0 mm 0 W/m2
19:25 6.3 °C 1.7 °C 1015.8 hPa SW 4.8 km/h 25.7 km/h 72 % 0 mm 0 W/m2
19:30 6.3 °C 1.6 °C 1015.8 hPa SSW 4.8 km/h 4.8 km/h 72 % 0 mm 0 W/m2
19:35 6.3 °C 1.6 °C 1015.8 hPa SSW 4.8 km/h 25.7 km/h 72 % 0 mm 0 W/m2
19:45 6.3 °C 1.6 °C 1015.8 hPa SSW 4.8 km/h 25.7 km/h 72 % 0 mm 0 W/m2
19:50 6.2 °C 1.7 °C 1015.8 hPa SSW 6.4 km/h 6.4 km/h 73 % 0 mm 0 W/m2
19:55 6.2 °C 1.7 °C 1015.8 hPa SSW 6.4 km/h 25.7 km/h 73 % 0 mm 0 W/m2
20:00 6.2 °C 1.7 °C 1015.5 hPa SSW 4.8 km/h 25.7 km/h 73 % 0 mm 0 W/m2
20:10 6.2 °C 1.9 °C 1015.5 hPa SSW 8 km/h 25.7 km/h 74 % 0 mm 0 W/m2
20:15 6.2 °C 1.9 °C 1015.5 hPa South 8 km/h 25.7 km/h 74 % 0 mm 0 W/m2
20:20 6.2 °C 1.9 °C 1015.1 hPa SSW 8 km/h 8 km/h 74 % 0 mm 0 W/m2
20:25 6.3 °C 2 °C 1015.1 hPa SSW 8 km/h 9.7 km/h 74 % 0 mm 0 W/m2
20:30 6.3 °C 2 °C 1015.1 hPa South 8 km/h 8 km/h 74 % 0 mm 0 W/m2
20:40 6.3 °C 2.2 °C 1015.1 hPa SSW 9.7 km/h 25.7 km/h 75 % 0 mm 0 W/m2
20:45 6.3 °C 2.2 °C 1015.1 hPa WSW 9.7 km/h 25.7 km/h 75 % 0 mm 0 W/m2
20:50 6.2 °C 2.1 °C 1015.1 hPa SW 9.7 km/h 9.7 km/h 75 % 0 mm 0 W/m2
20:55 6.2 °C 2.1 °C 1015.1 hPa South 9.7 km/h 25.7 km/h 75 % 0 mm 0 W/m2
21:00 6.2 °C 2.1 °C 1015.1 hPa SSW 9.7 km/h 9.7 km/h 75 % 0 mm 0 W/m2
21:05 6.2 °C 2.1 °C 1014.8 hPa SSW 9.7 km/h 11.3 km/h 75 % 0 mm 0 W/m2
21:15 6.3 °C 2 °C 1015.1 hPa SW 9.7 km/h 25.7 km/h 74 % 0 mm 0 W/m2
21:20 6.3 °C 2 °C 1014.8 hPa South 9.7 km/h 25.7 km/h 74 % 0 mm 0 W/m2
21:25 6.3 °C 2 °C 1014.8 hPa SW 11.3 km/h 25.7 km/h 74 % 0 mm 0 W/m2
21:30 6.3 °C 2 °C 1014.4 hPa SSW 12.9 km/h 12.9 km/h 74 % 0 mm 0 W/m2
21:35 6.3 °C 2 °C 1014.4 hPa SSW 11.3 km/h 25.7 km/h 74 % 0 mm 0 W/m2
21:45 6.2 °C 1.9 °C 1014.4 hPa SSW 9.7 km/h 25.7 km/h 74 % 0 mm 0 W/m2
21:50 6.2 °C 1.9 °C 1014.4 hPa SSW 9.7 km/h 25.7 km/h 74 % 0 mm 0 W/m2
21:55 6.2 °C 1.9 °C 1014.4 hPa SW 11.3 km/h 25.7 km/h 74 % 0 mm 0 W/m2
22:00 6.2 °C 1.9 °C 1014.1 hPa SSW 12.9 km/h 25.7 km/h 74 % 0 mm 0 W/m2
22:05 6.2 °C 1.9 °C 1014.1 hPa SW 14.5 km/h 25.7 km/h 74 % 0 mm 0 W/m2
22:10 6.2 °C 1.9 °C 1014.1 hPa SSW 14.5 km/h 25.7 km/h 74 % 0 mm 0 W/m2
22:20 6.3 °C 2 °C 1014.1 hPa SW 14.5 km/h 25.7 km/h 74 % 0 mm 0 W/m2
22:25 6.3 °C 1.8 °C 1014.1 hPa SSW 14.5 km/h 25.7 km/h 73 % 0 mm 0 W/m2
22:30 6.3 °C 1.8 °C 1014.1 hPa SW 14.5 km/h 14.5 km/h 73 % 0 mm 0 W/m2
22:35 6.3 °C 1.8 °C 1013.8 hPa SW 16.1 km/h 17.7 km/h 73 % 0 mm 0 W/m2
22:40 6.3 °C 1.8 °C 1013.8 hPa SSW 14.5 km/h 14.5 km/h 73 % 0 mm 0 W/m2
22:50 6.4 °C 1.7 °C 1013.8 hPa SSW 14.5 km/h 25.7 km/h 72 % 0 mm 0 W/m2
22:55 6.4 °C 1.7 °C 1013.4 hPa SSW 12.9 km/h 25.7 km/h 72 % 0 mm 0 W/m2
23:00 6.4 °C 1.8 °C 1013.4 hPa WSW 11.3 km/h 25.7 km/h 72 % 0 mm 0 W/m2
23:05 6.4 °C 1.8 °C 1013.4 hPa WSW 14.5 km/h 25.7 km/h 72 % 0 mm 0 W/m2
23:10 6.4 °C 1.8 °C 1013.4 hPa South 12.9 km/h 25.7 km/h 72 % 0 mm 0 W/m2
23:15 6.4 °C 1.9 °C 1013.4 hPa SSW 12.9 km/h 25.7 km/h 73 % 0 mm 0 W/m2
23:25 6.4 °C 2.1 °C 1013.1 hPa SSW 12.9 km/h 25.7 km/h 74 % 0 mm 0 W/m2
23:30 6.4 °C 2.2 °C 1012.8 hPa SW 14.5 km/h 25.7 km/h 74 % 0 mm 0 W/m2
23:35 6.4 °C 2.3 °C 1013.1 hPa SSW 16.1 km/h 25.7 km/h 75 % 0 mm 0 W/m2
23:40 6.4 °C 2.3 °C 1012.8 hPa SW 16.1 km/h 16.1 km/h 75 % 0 mm 0 W/m2
23:50 6.4 °C 2.5 °C 1013.1 hPa SW 14.5 km/h 25.7 km/h 76 % 0 mm 0 W/m2
23:55 6.4 °C 2.7 °C 1013.1 hPa SSW 14.5 km/h 25.7 km/h 77 % 0 mm 0 W/m2
Delerius-Weather
Compliments of Weather Underground - 2 mb

Data updates at regular intervals.